sensor_id;sensor_type;location;lat;lon;timestamp;P1;durP1;ratioP1;P2;durP2;ratioP2
69910;SDS011;63555;49.920;17.868;2023-11-19T00:01:46;24.13;;;9.47;;
69910;SDS011;63555;49.920;17.868;2023-11-19T00:06:47;24.40;;;10.73;;
69910;SDS011;63555;49.920;17.868;2023-11-19T00:11:47;23.60;;;10.03;;
69910;SDS011;63555;49.920;17.868;2023-11-19T00:16:48;25.60;;;9.77;;
69910;SDS011;63555;49.920;17.868;2023-11-19T00:21:51;27.92;;;10.25;;
69910;SDS011;63555;49.920;17.868;2023-11-19T00:26:51;26.67;;;9.83;;
69910;SDS011;63555;49.920;17.868;2023-11-19T00:31:51;25.47;;;9.83;;
69910;SDS011;63555;49.920;17.868;2023-11-19T00:36:52;27.60;;;9.60;;
69910;SDS011;63555;49.920;17.868;2023-11-19T00:41:52;21.83;;;8.63;;
69910;SDS011;63555;49.920;17.868;2023-11-19T00:46:52;21.87;;;7.60;;
69910;SDS011;63555;49.920;17.868;2023-11-19T00:51:53;29.83;;;9.17;;
69910;SDS011;63555;49.920;17.868;2023-11-19T00:56:53;24.05;;;7.97;;
69910;SDS011;63555;49.920;17.868;2023-11-19T01:01:54;23.20;;;8.43;;
69910;SDS011;63555;49.920;17.868;2023-11-19T01:06:55;24.33;;;8.63;;
69910;SDS011;63555;49.920;17.868;2023-11-19T01:11:55;27.20;;;9.60;;
69910;SDS011;63555;49.920;17.868;2023-11-19T01:16:56;22.80;;;8.80;;
69910;SDS011;63555;49.920;17.868;2023-11-19T01:21:56;22.43;;;7.97;;
69910;SDS011;63555;49.920;17.868;2023-11-19T01:26:56;22.80;;;8.77;;
69910;SDS011;63555;49.920;17.868;2023-11-19T01:31:57;27.08;;;9.65;;
69910;SDS011;63555;49.920;17.868;2023-11-19T01:36:58;24.67;;;9.30;;
69910;SDS011;63555;49.920;17.868;2023-11-19T01:41:58;25.20;;;7.80;;
69910;SDS011;63555;49.920;17.868;2023-11-19T01:46:58;23.53;;;8.30;;
69910;SDS011;63555;49.920;17.868;2023-11-19T01:52:00;26.55;;;9.60;;
69910;SDS011;63555;49.920;17.868;2023-11-19T01:57:01;33.53;;;11.18;;
69910;SDS011;63555;49.920;17.868;2023-11-19T02:02:02;23.60;;;8.80;;
69910;SDS011;63555;49.920;17.868;2023-11-19T02:07:02;18.83;;;7.43;;
69910;SDS011;63555;49.920;17.868;2023-11-19T02:12:02;20.47;;;7.43;;
69910;SDS011;63555;49.920;17.868;2023-11-19T02:17:03;21.40;;;7.87;;
69910;SDS011;63555;49.920;17.868;2023-11-19T02:22:04;23.60;;;8.25;;
69910;SDS011;63555;49.920;17.868;2023-11-19T02:27:09;20.77;;;7.93;;
69910;SDS011;63555;49.920;17.868;2023-11-19T02:32:16;18.05;;;6.82;;
69910;SDS011;63555;49.920;17.868;2023-11-19T02:37:16;18.80;;;7.70;;
69910;SDS011;63555;49.920;17.868;2023-11-19T02:42:19;18.90;;;6.53;;
69910;SDS011;63555;49.920;17.868;2023-11-19T02:47:19;17.07;;;7.23;;
69910;SDS011;63555;49.920;17.868;2023-11-19T02:52:21;18.15;;;6.88;;
69910;SDS011;63555;49.920;17.868;2023-11-19T02:57:21;18.20;;;6.57;;
69910;SDS011;63555;49.920;17.868;2023-11-19T03:02:22;22.03;;;7.00;;
69910;SDS011;63555;49.920;17.868;2023-11-19T03:07:24;18.90;;;7.63;;
69910;SDS011;63555;49.920;17.868;2023-11-19T03:12:24;20.47;;;6.70;;
69910;SDS011;63555;49.920;17.868;2023-11-19T03:17:26;17.07;;;7.27;;
69910;SDS011;63555;49.920;17.868;2023-11-19T03:22:26;18.27;;;6.57;;
69910;SDS011;63555;49.920;17.868;2023-11-19T03:27:27;19.40;;;7.17;;
69910;SDS011;63555;49.920;17.868;2023-11-19T03:32:27;16.43;;;7.00;;
69910;SDS011;63555;49.920;17.868;2023-11-19T03:37:27;16.10;;;6.40;;
69910;SDS011;63555;49.920;17.868;2023-11-19T03:42:28;20.30;;;7.53;;
69910;SDS011;63555;49.920;17.868;2023-11-19T03:47:30;19.17;;;7.85;;
69910;SDS011;63555;49.920;17.868;2023-11-19T03:52:30;17.80;;;7.20;;
69910;SDS011;63555;49.920;17.868;2023-11-19T03:57:31;21.17;;;8.02;;
69910;SDS011;63555;49.920;17.868;2023-11-19T04:02:31;16.60;;;6.87;;
69910;SDS011;63555;49.920;17.868;2023-11-19T04:07:32;19.43;;;7.50;;
69910;SDS011;63555;49.920;17.868;2023-11-19T04:12:32;22.30;;;8.53;;
69910;SDS011;63555;49.920;17.868;2023-11-19T04:17:33;20.03;;;8.00;;
69910;SDS011;63555;49.920;17.868;2023-11-19T04:22:33;18.50;;;7.23;;
69910;SDS011;63555;49.920;17.868;2023-11-19T04:27:33;18.53;;;7.40;;
69910;SDS011;63555;49.920;17.868;2023-11-19T04:32:34;15.87;;;6.53;;
69910;SDS011;63555;49.920;17.868;2023-11-19T04:37:34;17.07;;;7.13;;
69910;SDS011;63555;49.920;17.868;2023-11-19T04:42:34;18.45;;;7.45;;
69910;SDS011;63555;49.920;17.868;2023-11-19T04:47:35;19.13;;;7.03;;
69910;SDS011;63555;49.920;17.868;2023-11-19T04:52:38;15.85;;;6.18;;
69910;SDS011;63555;49.920;17.868;2023-11-19T04:57:45;18.08;;;6.88;;
69910;SDS011;63555;49.920;17.868;2023-11-19T05:02:45;15.97;;;6.27;;
69910;SDS011;63555;49.920;17.868;2023-11-19T05:07:46;16.97;;;6.60;;
69910;SDS011;63555;49.920;17.868;2023-11-19T05:12:46;16.00;;;6.07;;
69910;SDS011;63555;49.920;17.868;2023-11-19T05:17:46;17.07;;;6.17;;
69910;SDS011;63555;49.920;17.868;2023-11-19T05:22:46;25.37;;;8.17;;
69910;SDS011;63555;49.920;17.868;2023-11-19T05:27:47;20.60;;;7.00;;
69910;SDS011;63555;49.920;17.868;2023-11-19T05:32:47;13.93;;;6.47;;
69910;SDS011;63555;49.920;17.868;2023-11-19T05:37:48;12.67;;;5.47;;
69910;SDS011;63555;49.920;17.868;2023-11-19T05:42:50;13.25;;;5.18;;
69910;SDS011;63555;49.920;17.868;2023-11-19T05:47:50;13.97;;;5.53;;
69910;SDS011;63555;49.920;17.868;2023-11-19T05:52:51;10.43;;;3.80;;
69910;SDS011;63555;49.920;17.868;2023-11-19T05:57:53;9.63;;;3.80;;
69910;SDS011;63555;49.920;17.868;2023-11-19T06:02:54;9.20;;;3.73;;
69910;SDS011;63555;49.920;17.868;2023-11-19T06:07:54;8.97;;;3.60;;
69910;SDS011;63555;49.920;17.868;2023-11-19T06:12:55;7.30;;;3.63;;
69910;SDS011;63555;49.920;17.868;2023-11-19T06:17:57;10.52;;;3.97;;
69910;SDS011;63555;49.920;17.868;2023-11-19T06:23:01;8.00;;;3.70;;
69910;SDS011;63555;49.920;17.868;2023-11-19T06:28:01;6.07;;;2.63;;
69910;SDS011;63555;49.920;17.868;2023-11-19T06:33:02;7.87;;;2.60;;
69910;SDS011;63555;49.920;17.868;2023-11-19T06:38:03;6.10;;;2.28;;
69910;SDS011;63555;49.920;17.868;2023-11-19T06:43:06;6.70;;;2.87;;
69910;SDS011;63555;49.920;17.868;2023-11-19T06:48:09;5.07;;;2.15;;
69910;SDS011;63555;49.920;17.868;2023-11-19T06:53:09;6.93;;;3.20;;
69910;SDS011;63555;49.920;17.868;2023-11-19T06:58:10;8.50;;;3.20;;
69910;SDS011;63555;49.920;17.868;2023-11-19T07:03:12;8.02;;;3.72;;
69910;SDS011;63555;49.920;17.868;2023-11-19T07:08:12;16.97;;;6.07;;
69910;SDS011;63555;49.920;17.868;2023-11-19T07:13:13;9.40;;;4.20;;
69910;SDS011;63555;49.920;17.868;2023-11-19T07:18:13;8.03;;;3.93;;
69910;SDS011;63555;49.920;17.868;2023-11-19T07:23:14;7.97;;;3.67;;
69910;SDS011;63555;49.920;17.868;2023-11-19T07:28:17;7.83;;;3.17;;
69910;SDS011;63555;49.920;17.868;2023-11-19T07:33:17;10.10;;;4.33;;
69910;SDS011;63555;49.920;17.868;2023-11-19T07:38:18;7.70;;;3.20;;
69910;SDS011;63555;49.920;17.868;2023-11-19T07:43:18;7.70;;;3.83;;
69910;SDS011;63555;49.920;17.868;2023-11-19T07:48:18;9.47;;;3.87;;
69910;SDS011;63555;49.920;17.868;2023-11-19T07:53:23;10.00;;;4.50;;
69910;SDS011;63555;49.920;17.868;2023-11-19T07:58:23;11.80;;;4.53;;
69910;SDS011;63555;49.920;17.868;2023-11-19T08:03:24;10.70;;;4.30;;
69910;SDS011;63555;49.920;17.868;2023-11-19T08:08:24;9.97;;;4.07;;
69910;SDS011;63555;49.920;17.868;2023-11-19T08:13:24;6.40;;;2.90;;
69910;SDS011;63555;49.920;17.868;2023-11-19T08:18:25;6.35;;;2.90;;
69910;SDS011;63555;49.920;17.868;2023-11-19T08:23:25;9.80;;;4.20;;
69910;SDS011;63555;49.920;17.868;2023-11-19T08:28:26;9.80;;;4.90;;
69910;SDS011;63555;49.920;17.868;2023-11-19T08:33:26;8.73;;;4.07;;
69910;SDS011;63555;49.920;17.868;2023-11-19T08:38:27;8.60;;;4.90;;
69910;SDS011;63555;49.920;17.868;2023-11-19T08:43:27;8.60;;;3.87;;
69910;SDS011;63555;49.920;17.868;2023-11-19T08:48:28;10.57;;;5.27;;
69910;SDS011;63555;49.920;17.868;2023-11-19T08:53:28;5.90;;;3.47;;
69910;SDS011;63555;49.920;17.868;2023-11-19T08:58:28;9.93;;;3.80;;
69910;SDS011;63555;49.920;17.868;2023-11-19T09:03:30;7.70;;;4.07;;
69910;SDS011;63555;49.920;17.868;2023-11-19T09:08:31;9.43;;;4.03;;
69910;SDS011;63555;49.920;17.868;2023-11-19T09:13:32;8.00;;;4.10;;
69910;SDS011;63555;49.920;17.868;2023-11-19T09:18:32;7.10;;;3.20;;
69910;SDS011;63555;49.920;17.868;2023-11-19T09:23:33;8.83;;;3.53;;
69910;SDS011;63555;49.920;17.868;2023-11-19T09:28:38;5.45;;;2.42;;
69910;SDS011;63555;49.920;17.868;2023-11-19T09:33:39;7.67;;;3.37;;
69910;SDS011;63555;49.920;17.868;2023-11-19T09:38:40;9.20;;;3.50;;
69910;SDS011;63555;49.920;17.868;2023-11-19T09:43:41;10.05;;;3.28;;
69910;SDS011;63555;49.920;17.868;2023-11-19T09:48:42;8.53;;;3.87;;
69910;SDS011;63555;49.920;17.868;2023-11-19T09:53:43;14.80;;;6.05;;
69910;SDS011;63555;49.920;17.868;2023-11-19T09:58:44;10.43;;;5.87;;
69910;SDS011;63555;49.920;17.868;2023-11-19T10:03:44;7.27;;;3.93;;
69910;SDS011;63555;49.920;17.868;2023-11-19T10:08:47;9.02;;;5.10;;
69910;SDS011;63555;49.920;17.868;2023-11-19T10:13:48;7.50;;;3.70;;
69910;SDS011;63555;49.920;17.868;2023-11-19T10:18:49;8.10;;;3.73;;
69910;SDS011;63555;49.920;17.868;2023-11-19T10:23:53;9.13;;;4.03;;
69910;SDS011;63555;49.920;17.868;2023-11-19T10:28:59;5.28;;;2.60;;
69910;SDS011;63555;49.920;17.868;2023-11-19T10:34:01;7.40;;;3.88;;
69910;SDS011;63555;49.920;17.868;2023-11-19T10:39:01;6.87;;;3.33;;
69910;SDS011;63555;49.920;17.868;2023-11-19T10:44:02;6.23;;;2.70;;
69910;SDS011;63555;49.920;17.868;2023-11-19T10:49:02;6.33;;;2.07;;
69910;SDS011;63555;49.920;17.868;2023-11-19T10:54:03;4.30;;;1.90;;
69910;SDS011;63555;49.920;17.868;2023-11-19T10:59:05;6.18;;;2.80;;
69910;SDS011;63555;49.920;17.868;2023-11-19T11:04:10;5.10;;;2.40;;
69910;SDS011;63555;49.920;17.868;2023-11-19T11:09:15;6.90;;;3.55;;
69910;SDS011;63555;49.920;17.868;2023-11-19T11:14:16;5.95;;;2.88;;
69910;SDS011;63555;49.920;17.868;2023-11-19T11:19:20;8.40;;;3.77;;
69910;SDS011;63555;49.920;17.868;2023-11-19T11:24:24;5.63;;;2.85;;
69910;SDS011;63555;49.920;17.868;2023-11-19T11:29:53;7.87;;;3.50;;
69910;SDS011;63555;49.920;17.868;2023-11-19T11:40:30;7.72;;;2.67;;
69910;SDS011;63555;49.920;17.868;2023-11-19T11:45:38;8.60;;;3.63;;
69910;SDS011;63555;49.920;17.868;2023-11-19T11:50:57;7.82;;;2.88;;
69910;SDS011;63555;49.920;17.868;2023-11-19T11:55:57;5.17;;;2.47;;
69910;SDS011;63555;49.920;17.868;2023-11-19T12:01:00;5.75;;;2.38;;
69910;SDS011;63555;49.920;17.868;2023-11-19T12:06:02;4.40;;;1.90;;
69910;SDS011;63555;49.920;17.868;2023-11-19T12:11:04;4.75;;;2.45;;
69910;SDS011;63555;49.920;17.868;2023-11-19T12:21:07;9.70;;;4.87;;
69910;SDS011;63555;49.920;17.868;2023-11-19T12:26:20;6.18;;;3.10;;
69910;SDS011;63555;49.920;17.868;2023-11-19T12:31:21;7.82;;;3.55;;
69910;SDS011;63555;49.920;17.868;2023-11-19T12:36:22;5.87;;;2.60;;
69910;SDS011;63555;49.920;17.868;2023-11-19T12:41:22;5.30;;;2.40;;
69910;SDS011;63555;49.920;17.868;2023-11-19T12:46:23;4.90;;;2.43;;
69910;SDS011;63555;49.920;17.868;2023-11-19T12:51:30;7.70;;;3.63;;
69910;SDS011;63555;49.920;17.868;2023-11-19T12:56:31;3.80;;;2.30;;
69910;SDS011;63555;49.920;17.868;2023-11-19T13:01:31;4.73;;;2.10;;
69910;SDS011;63555;49.920;17.868;2023-11-19T13:06:35;5.27;;;2.90;;
69910;SDS011;63555;49.920;17.868;2023-11-19T13:11:44;4.72;;;2.22;;
69910;SDS011;63555;49.920;17.868;2023-11-19T13:16:46;3.90;;;2.13;;
69910;SDS011;63555;49.920;17.868;2023-11-19T13:21:47;3.65;;;1.77;;
69910;SDS011;63555;49.920;17.868;2023-11-19T13:26:48;3.97;;;1.90;;
69910;SDS011;63555;49.920;17.868;2023-11-19T13:31:48;3.77;;;2.00;;
69910;SDS011;63555;49.920;17.868;2023-11-19T13:36:49;4.50;;;2.17;;
69910;SDS011;63555;49.920;17.868;2023-11-19T13:41:50;2.53;;;1.00;;
69910;SDS011;63555;49.920;17.868;2023-11-19T13:46:50;3.43;;;1.40;;
69910;SDS011;63555;49.920;17.868;2023-11-19T13:51:51;4.57;;;1.90;;
69910;SDS011;63555;49.920;17.868;2023-11-19T13:56:56;3.15;;;1.35;;
69910;SDS011;63555;49.920;17.868;2023-11-19T14:02:00;3.67;;;1.77;;
69910;SDS011;63555;49.920;17.868;2023-11-19T14:07:01;5.97;;;2.33;;
69910;SDS011;63555;49.920;17.868;2023-11-19T14:12:01;3.60;;;1.83;;
69910;SDS011;63555;49.920;17.868;2023-11-19T14:17:03;3.95;;;2.33;;
69910;SDS011;63555;49.920;17.868;2023-11-19T14:22:03;5.00;;;2.23;;
69910;SDS011;63555;49.920;17.868;2023-11-19T14:27:04;4.37;;;1.67;;
69910;SDS011;63555;49.920;17.868;2023-11-19T14:32:04;5.70;;;2.43;;
69910;SDS011;63555;49.920;17.868;2023-11-19T14:37:05;9.10;;;3.90;;
69910;SDS011;63555;49.920;17.868;2023-11-19T14:42:06;6.50;;;2.60;;
69910;SDS011;63555;49.920;17.868;2023-11-19T14:47:07;4.18;;;1.98;;
69910;SDS011;63555;49.920;17.868;2023-11-19T14:52:07;5.47;;;2.67;;
69910;SDS011;63555;49.920;17.868;2023-11-19T14:57:08;9.27;;;4.22;;
69910;SDS011;63555;49.920;17.868;2023-11-19T15:02:09;10.50;;;4.35;;
69910;SDS011;63555;49.920;17.868;2023-11-19T15:07:10;9.37;;;3.80;;
69910;SDS011;63555;49.920;17.868;2023-11-19T15:12:10;8.23;;;4.77;;
69910;SDS011;63555;49.920;17.868;2023-11-19T15:17:11;10.40;;;4.10;;
69910;SDS011;63555;49.920;17.868;2023-11-19T15:22:11;10.50;;;5.03;;
69910;SDS011;63555;49.920;17.868;2023-11-19T15:27:12;15.57;;;5.63;;
69910;SDS011;63555;49.920;17.868;2023-11-19T15:32:12;11.50;;;5.87;;
69910;SDS011;63555;49.920;17.868;2023-11-19T15:37:13;11.30;;;5.97;;
69910;SDS011;63555;49.920;17.868;2023-11-19T15:42:15;9.43;;;3.83;;
69910;SDS011;63555;49.920;17.868;2023-11-19T15:47:15;11.17;;;5.33;;
69910;SDS011;63555;49.920;17.868;2023-11-19T15:52:15;7.90;;;4.27;;
69910;SDS011;63555;49.920;17.868;2023-11-19T15:57:16;9.67;;;4.37;;
69910;SDS011;63555;49.920;17.868;2023-11-19T16:02:17;14.95;;;6.03;;
69910;SDS011;63555;49.920;17.868;2023-11-19T16:07:17;6.57;;;2.40;;
69910;SDS011;63555;49.920;17.868;2023-11-19T16:12:19;7.97;;;3.93;;
69910;SDS011;63555;49.920;17.868;2023-11-19T16:17:20;11.02;;;5.00;;
69910;SDS011;63555;49.920;17.868;2023-11-19T16:22:21;10.50;;;4.90;;
69910;SDS011;63555;49.920;17.868;2023-11-19T16:27:21;13.00;;;6.23;;
69910;SDS011;63555;49.920;17.868;2023-11-19T16:32:21;14.97;;;6.40;;
69910;SDS011;63555;49.920;17.868;2023-11-19T16:37:22;14.57;;;6.63;;
69910;SDS011;63555;49.920;17.868;2023-11-19T16:42:22;16.42;;;7.65;;
69910;SDS011;63555;49.920;17.868;2023-11-19T16:47:23;36.03;;;14.20;;
69910;SDS011;63555;49.920;17.868;2023-11-19T16:52:23;24.50;;;9.87;;
69910;SDS011;63555;49.920;17.868;2023-11-19T16:57:25;27.30;;;12.70;;
69910;SDS011;63555;49.920;17.868;2023-11-19T17:02:27;18.83;;;6.82;;
69910;SDS011;63555;49.920;17.868;2023-11-19T17:07:28;16.80;;;7.25;;
69910;SDS011;63555;49.920;17.868;2023-11-19T17:12:29;19.20;;;7.67;;
69910;SDS011;63555;49.920;17.868;2023-11-19T17:17:33;22.70;;;9.65;;
69910;SDS011;63555;49.920;17.868;2023-11-19T17:22:36;21.03;;;7.80;;
69910;SDS011;63555;49.920;17.868;2023-11-19T17:27:38;18.98;;;8.02;;
69910;SDS011;63555;49.920;17.868;2023-11-19T17:32:39;16.07;;;6.83;;
69910;SDS011;63555;49.920;17.868;2023-11-19T17:37:39;16.77;;;8.07;;
69910;SDS011;63555;49.920;17.868;2023-11-19T17:42:41;17.13;;;7.60;;
69910;SDS011;63555;49.920;17.868;2023-11-19T17:47:41;18.10;;;8.00;;
69910;SDS011;63555;49.920;17.868;2023-11-19T17:52:42;26.67;;;10.63;;
69910;SDS011;63555;49.920;17.868;2023-11-19T17:57:42;20.30;;;7.17;;
69910;SDS011;63555;49.920;17.868;2023-11-19T18:02:44;19.52;;;9.48;;
69910;SDS011;63555;49.920;17.868;2023-11-19T18:07:47;16.80;;;7.00;;
69910;SDS011;63555;49.920;17.868;2023-11-19T18:12:48;15.97;;;6.67;;
69910;SDS011;63555;49.920;17.868;2023-11-19T18:17:48;13.30;;;5.97;;
69910;SDS011;63555;49.920;17.868;2023-11-19T18:22:49;15.33;;;7.37;;
69910;SDS011;63555;49.920;17.868;2023-11-19T18:27:49;11.43;;;5.23;;
69910;SDS011;63555;49.920;17.868;2023-11-19T18:32:49;11.60;;;5.57;;
69910;SDS011;63555;49.920;17.868;2023-11-19T18:37:50;10.30;;;4.83;;
69910;SDS011;63555;49.920;17.868;2023-11-19T18:42:50;11.40;;;5.53;;
69910;SDS011;63555;49.920;17.868;2023-11-19T18:47:51;11.17;;;5.00;;
69910;SDS011;63555;49.920;17.868;2023-11-19T18:52:51;10.90;;;4.90;;
69910;SDS011;63555;49.920;17.868;2023-11-19T18:57:52;11.83;;;5.43;;
69910;SDS011;63555;49.920;17.868;2023-11-19T19:02:52;13.30;;;4.77;;
69910;SDS011;63555;49.920;17.868;2023-11-19T19:07:53;12.27;;;4.40;;
69910;SDS011;63555;49.920;17.868;2023-11-19T19:12:56;11.48;;;4.25;;
69910;SDS011;63555;49.920;17.868;2023-11-19T19:17:57;12.87;;;5.43;;
69910;SDS011;63555;49.920;17.868;2023-11-19T19:22:57;10.70;;;5.13;;
69910;SDS011;63555;49.920;17.868;2023-11-19T19:27:58;11.60;;;4.40;;
69910;SDS011;63555;49.920;17.868;2023-11-19T19:32:58;10.63;;;4.37;;
69910;SDS011;63555;49.920;17.868;2023-11-19T19:37:59;11.07;;;5.22;;
69910;SDS011;63555;49.920;17.868;2023-11-19T19:42:59;11.40;;;4.83;;
69910;SDS011;63555;49.920;17.868;2023-11-19T19:48:00;8.90;;;3.40;;
69910;SDS011;63555;49.920;17.868;2023-11-19T19:53:00;9.23;;;4.23;;
69910;SDS011;63555;49.920;17.868;2023-11-19T19:58:01;10.17;;;4.83;;
69910;SDS011;63555;49.920;17.868;2023-11-19T20:03:01;10.63;;;4.97;;
69910;SDS011;63555;49.920;17.868;2023-11-19T20:08:02;12.77;;;4.68;;
69910;SDS011;63555;49.920;17.868;2023-11-19T20:13:03;10.63;;;5.05;;
69910;SDS011;63555;49.920;17.868;2023-11-19T20:18:09;11.03;;;4.47;;
69910;SDS011;63555;49.920;17.868;2023-11-19T20:23:12;10.05;;;4.55;;
69910;SDS011;63555;49.920;17.868;2023-11-19T20:28:12;10.57;;;4.17;;
69910;SDS011;63555;49.920;17.868;2023-11-19T20:33:13;11.67;;;5.30;;
69910;SDS011;63555;49.920;17.868;2023-11-19T20:38:13;12.33;;;4.80;;
69910;SDS011;63555;49.920;17.868;2023-11-19T20:43:14;11.57;;;4.73;;
69910;SDS011;63555;49.920;17.868;2023-11-19T20:48:14;9.57;;;4.40;;
69910;SDS011;63555;49.920;17.868;2023-11-19T20:53:15;9.47;;;4.07;;
69910;SDS011;63555;49.920;17.868;2023-11-19T20:58:15;12.70;;;4.53;;
69910;SDS011;63555;49.920;17.868;2023-11-19T21:03:16;10.50;;;4.47;;
69910;SDS011;63555;49.920;17.868;2023-11-19T21:08:18;9.13;;;4.28;;
69910;SDS011;63555;49.920;17.868;2023-11-19T21:13:18;10.33;;;4.50;;
69910;SDS011;63555;49.920;17.868;2023-11-19T21:18:19;11.03;;;4.20;;
69910;SDS011;63555;49.920;17.868;2023-11-19T21:23:20;12.50;;;4.80;;
69910;SDS011;63555;49.920;17.868;2023-11-19T21:28:25;13.70;;;4.93;;
69910;SDS011;63555;49.920;17.868;2023-11-19T21:33:29;10.43;;;4.60;;
69910;SDS011;63555;49.920;17.868;2023-11-19T21:38:30;9.83;;;5.03;;
69910;SDS011;63555;49.920;17.868;2023-11-19T21:43:31;12.80;;;5.20;;
69910;SDS011;63555;49.920;17.868;2023-11-19T21:48:33;12.07;;;4.83;;
69910;SDS011;63555;49.920;17.868;2023-11-19T21:53:33;10.03;;;4.57;;
69910;SDS011;63555;49.920;17.868;2023-11-19T21:58:34;12.02;;;4.70;;
69910;SDS011;63555;49.920;17.868;2023-11-19T22:03:34;11.63;;;4.87;;
69910;SDS011;63555;49.920;17.868;2023-11-19T22:08:36;12.33;;;5.20;;
69910;SDS011;63555;49.920;17.868;2023-11-19T22:13:37;12.30;;;4.63;;
69910;SDS011;63555;49.920;17.868;2023-11-19T22:18:38;11.52;;;4.68;;
69910;SDS011;63555;49.920;17.868;2023-11-19T22:23:38;10.33;;;4.50;;
69910;SDS011;63555;49.920;17.868;2023-11-19T22:28:38;8.90;;;3.73;;
69910;SDS011;63555;49.920;17.868;2023-11-19T22:33:40;12.63;;;4.83;;
69910;SDS011;63555;49.920;17.868;2023-11-19T22:38:41;9.03;;;3.33;;
69910;SDS011;63555;49.920;17.868;2023-11-19T22:43:41;11.20;;;4.60;;
69910;SDS011;63555;49.920;17.868;2023-11-19T22:48:41;9.07;;;3.83;;
69910;SDS011;63555;49.920;17.868;2023-11-19T22:53:42;10.17;;;4.60;;
69910;SDS011;63555;49.920;17.868;2023-11-19T22:58:43;8.43;;;3.55;;
69910;SDS011;63555;49.920;17.868;2023-11-19T23:03:49;8.90;;;3.53;;
69910;SDS011;63555;49.920;17.868;2023-11-19T23:08:49;10.30;;;4.87;;
69910;SDS011;63555;49.920;17.868;2023-11-19T23:13:49;7.20;;;3.67;;
69910;SDS011;63555;49.920;17.868;2023-11-19T23:18:50;9.20;;;4.60;;
69910;SDS011;63555;49.920;17.868;2023-11-19T23:23:53;12.20;;;4.13;;
69910;SDS011;63555;49.920;17.868;2023-11-19T23:28:53;9.53;;;4.17;;
69910;SDS011;63555;49.920;17.868;2023-11-19T23:33:54;9.73;;;4.13;;
69910;SDS011;63555;49.920;17.868;2023-11-19T23:38:54;7.97;;;3.20;;
69910;SDS011;63555;49.920;17.868;2023-11-19T23:43:54;8.13;;;2.90;;
69910;SDS011;63555;49.920;17.868;2023-11-19T23:48:55;6.23;;;3.03;;
69910;SDS011;63555;49.920;17.868;2023-11-19T23:53:55;6.93;;;3.23;;
69910;SDS011;63555;49.920;17.868;2023-11-19T23:58:55;8.83;;;3.27;;
